sensor_id;sensor_type;location;lat;lon;timestamp;P1;durP1;ratioP1;P2;durP2;ratioP2
70505;SDS011;58032;49.820;6.274;2023-11-18T00:01:20;10.57;;;4.00;;
70505;SDS011;58032;49.820;6.274;2023-11-18T00:03:46;8.43;;;2.73;;
70505;SDS011;58032;49.820;6.274;2023-11-18T00:06:13;7.40;;;2.80;;
70505;SDS011;58032;49.820;6.274;2023-11-18T00:08:40;7.47;;;3.10;;
70505;SDS011;58032;49.820;6.274;2023-11-18T00:11:06;6.15;;;2.80;;
70505;SDS011;58032;49.820;6.274;2023-11-18T00:13:33;57.95;;;4.45;;
70505;SDS011;58032;49.820;6.274;2023-11-18T00:16:00;39.63;;;2.90;;
70505;SDS011;58032;49.820;6.274;2023-11-18T00:18:27;21.60;;;3.05;;
70505;SDS011;58032;49.820;6.274;2023-11-18T00:20:53;15.93;;;3.10;;
70505;SDS011;58032;49.820;6.274;2023-11-18T00:23:20;15.93;;;4.00;;
70505;SDS011;58032;49.820;6.274;2023-11-18T00:25:47;19.17;;;2.90;;
70505;SDS011;58032;49.820;6.274;2023-11-18T00:28:14;29.13;;;3.37;;
70505;SDS011;58032;49.820;6.274;2023-11-18T00:30:41;44.08;;;3.35;;
70505;SDS011;58032;49.820;6.274;2023-11-18T00:33:07;42.15;;;3.78;;
70505;SDS011;58032;49.820;6.274;2023-11-18T00:35:35;28.50;;;3.03;;
70505;SDS011;58032;49.820;6.274;2023-11-18T00:38:02;48.45;;;4.32;;
70505;SDS011;58032;49.820;6.274;2023-11-18T00:40:30;39.07;;;4.20;;
70505;SDS011;58032;49.820;6.274;2023-11-18T00:42:57;32.95;;;3.38;;
70505;SDS011;58032;49.820;6.274;2023-11-18T00:45:23;63.08;;;4.90;;
70505;SDS011;58032;49.820;6.274;2023-11-18T00:47:50;96.45;;;6.43;;
70505;SDS011;58032;49.820;6.274;2023-11-18T00:50:17;42.75;;;3.53;;
70505;SDS011;58032;49.820;6.274;2023-11-18T00:52:44;32.73;;;2.93;;
70505;SDS011;58032;49.820;6.274;2023-11-18T00:55:13;50.90;;;3.22;;
70505;SDS011;58032;49.820;6.274;2023-11-18T00:57:40;41.22;;;4.43;;
70505;SDS011;58032;49.820;6.274;2023-11-18T01:00:07;42.17;;;3.63;;
70505;SDS011;58032;49.820;6.274;2023-11-18T01:02:35;35.25;;;3.53;;
70505;SDS011;58032;49.820;6.274;2023-11-18T01:05:01;39.50;;;4.30;;
70505;SDS011;58032;49.820;6.274;2023-11-18T01:07:29;50.58;;;4.05;;
70505;SDS011;58032;49.820;6.274;2023-11-18T01:09:56;34.00;;;3.22;;
70505;SDS011;58032;49.820;6.274;2023-11-18T01:12:22;25.25;;;3.13;;
70505;SDS011;58032;49.820;6.274;2023-11-18T01:14:49;39.83;;;3.35;;
70505;SDS011;58032;49.820;6.274;2023-11-18T01:17:16;30.33;;;3.63;;
70505;SDS011;58032;49.820;6.274;2023-11-18T01:19:43;16.63;;;2.58;;
70505;SDS011;58032;49.820;6.274;2023-11-18T01:22:10;77.47;;;4.70;;
70505;SDS011;58032;49.820;6.274;2023-11-18T01:24:38;27.08;;;3.40;;
70505;SDS011;58032;49.820;6.274;2023-11-18T01:27:05;34.05;;;3.35;;
70505;SDS011;58032;49.820;6.274;2023-11-18T01:29:38;48.20;;;4.60;;
70505;SDS011;58032;49.820;6.274;2023-11-18T01:32:06;35.72;;;3.38;;
70505;SDS011;58032;49.820;6.274;2023-11-18T01:34:36;25.88;;;3.70;;
70505;SDS011;58032;49.820;6.274;2023-11-18T01:37:10;51.92;;;5.05;;
70505;SDS011;58032;49.820;6.274;2023-11-18T01:39:37;31.15;;;4.35;;
70505;SDS011;58032;49.820;6.274;2023-11-18T01:42:03;28.90;;;4.47;;
70505;SDS011;58032;49.820;6.274;2023-11-18T01:44:30;25.85;;;3.80;;
70505;SDS011;58032;49.820;6.274;2023-11-18T01:46:57;42.90;;;4.40;;
70505;SDS011;58032;49.820;6.274;2023-11-18T01:49:24;62.50;;;4.15;;
70505;SDS011;58032;49.820;6.274;2023-11-18T01:51:54;50.35;;;3.67;;
70505;SDS011;58032;49.820;6.274;2023-11-18T01:54:21;64.27;;;4.23;;
70505;SDS011;58032;49.820;6.274;2023-11-18T01:56:49;37.42;;;3.50;;
70505;SDS011;58032;49.820;6.274;2023-11-18T01:59:16;116.15;;;6.03;;
70505;SDS011;58032;49.820;6.274;2023-11-18T02:01:49;104.82;;;5.93;;
70505;SDS011;58032;49.820;6.274;2023-11-18T02:04:17;129.90;;;6.43;;
70505;SDS011;58032;49.820;6.274;2023-11-18T02:06:47;43.47;;;4.10;;
70505;SDS011;58032;49.820;6.274;2023-11-18T02:09:15;19.00;;;3.38;;
70505;SDS011;58032;49.820;6.274;2023-11-18T02:11:45;51.13;;;3.85;;
70505;SDS011;58032;49.820;6.274;2023-11-18T02:14:15;40.05;;;3.45;;
70505;SDS011;58032;49.820;6.274;2023-11-18T02:16:43;66.60;;;4.25;;
70505;SDS011;58032;49.820;6.274;2023-11-18T02:19:20;84.53;;;4.63;;
70505;SDS011;58032;49.820;6.274;2023-11-18T02:21:48;24.73;;;3.75;;
70505;SDS011;58032;49.820;6.274;2023-11-18T02:24:26;50.00;;;7.80;;
70505;SDS011;58032;49.820;6.274;2023-11-18T02:26:53;39.45;;;4.03;;
70505;SDS011;58032;49.820;6.274;2023-11-18T02:29:21;30.05;;;4.55;;
70505;SDS011;58032;49.820;6.274;2023-11-18T02:31:49;26.17;;;3.90;;
70505;SDS011;58032;49.820;6.274;2023-11-18T02:34:19;25.45;;;3.53;;
70505;SDS011;58032;49.820;6.274;2023-11-18T02:36:49;35.92;;;3.55;;
70505;SDS011;58032;49.820;6.274;2023-11-18T02:39:20;60.80;;;6.88;;
70505;SDS011;58032;49.820;6.274;2023-11-18T02:41:48;31.80;;;4.15;;
70505;SDS011;58032;49.820;6.274;2023-11-18T02:44:18;88.80;;;7.30;;
70505;SDS011;58032;49.820;6.274;2023-11-18T02:46:47;70.45;;;4.55;;
70505;SDS011;58032;49.820;6.274;2023-11-18T02:49:15;41.28;;;4.07;;
70505;SDS011;58032;49.820;6.274;2023-11-18T02:51:42;74.50;;;4.78;;
70505;SDS011;58032;49.820;6.274;2023-11-18T02:54:09;47.88;;;4.47;;
70505;SDS011;58032;49.820;6.274;2023-11-18T02:56:37;45.67;;;4.43;;
70505;SDS011;58032;49.820;6.274;2023-11-18T02:59:04;82.40;;;4.80;;
70505;SDS011;58032;49.820;6.274;2023-11-18T03:01:34;61.42;;;5.07;;
70505;SDS011;58032;49.820;6.274;2023-11-18T03:04:01;64.55;;;5.00;;
70505;SDS011;58032;49.820;6.274;2023-11-18T03:06:27;73.65;;;5.63;;
70505;SDS011;58032;49.820;6.274;2023-11-18T03:08:54;24.97;;;4.20;;
70505;SDS011;58032;49.820;6.274;2023-11-18T03:11:21;19.30;;;3.35;;
70505;SDS011;58032;49.820;6.274;2023-11-18T03:13:49;44.00;;;4.18;;
70505;SDS011;58032;49.820;6.274;2023-11-18T03:16:15;50.10;;;3.95;;
70505;SDS011;58032;49.820;6.274;2023-11-18T03:18:43;38.10;;;3.67;;
70505;SDS011;58032;49.820;6.274;2023-11-18T03:21:13;42.97;;;3.97;;
70505;SDS011;58032;49.820;6.274;2023-11-18T03:23:40;21.73;;;3.42;;
70505;SDS011;58032;49.820;6.274;2023-11-18T03:26:07;31.00;;;5.18;;
70505;SDS011;58032;49.820;6.274;2023-11-18T03:28:34;36.40;;;4.32;;
70505;SDS011;58032;49.820;6.274;2023-11-18T03:31:06;15.32;;;3.97;;
70505;SDS011;58032;49.820;6.274;2023-11-18T03:33:33;25.80;;;4.33;;
70505;SDS011;58032;49.820;6.274;2023-11-18T03:36:00;103.00;;;7.38;;
70505;SDS011;58032;49.820;6.274;2023-11-18T03:38:26;53.70;;;5.28;;
70505;SDS011;58032;49.820;6.274;2023-11-18T03:40:55;28.50;;;3.95;;
70505;SDS011;58032;49.820;6.274;2023-11-18T03:43:23;40.40;;;4.72;;
70505;SDS011;58032;49.820;6.274;2023-11-18T03:45:50;40.13;;;4.73;;
70505;SDS011;58032;49.820;6.274;2023-11-18T03:48:19;23.77;;;3.78;;
70505;SDS011;58032;49.820;6.274;2023-11-18T03:50:46;36.92;;;4.55;;
70505;SDS011;58032;49.820;6.274;2023-11-18T03:53:13;59.15;;;5.55;;
70505;SDS011;58032;49.820;6.274;2023-11-18T03:55:40;44.33;;;4.78;;
70505;SDS011;58032;49.820;6.274;2023-11-18T03:58:06;44.70;;;5.03;;
70505;SDS011;58032;49.820;6.274;2023-11-18T04:00:35;41.80;;;5.03;;
70505;SDS011;58032;49.820;6.274;2023-11-18T04:03:02;55.25;;;5.07;;
70505;SDS011;58032;49.820;6.274;2023-11-18T04:05:30;74.90;;;5.78;;
70505;SDS011;58032;49.820;6.274;2023-11-18T04:07:57;71.72;;;5.38;;
70505;SDS011;58032;49.820;6.274;2023-11-18T04:10:24;26.10;;;4.77;;
70505;SDS011;58032;49.820;6.274;2023-11-18T04:12:51;33.35;;;4.55;;
70505;SDS011;58032;49.820;6.274;2023-11-18T04:15:18;60.55;;;4.97;;
70505;SDS011;58032;49.820;6.274;2023-11-18T04:17:44;37.90;;;4.82;;
70505;SDS011;58032;49.820;6.274;2023-11-18T04:20:11;55.35;;;4.85;;
70505;SDS011;58032;49.820;6.274;2023-11-18T04:22:39;23.80;;;4.53;;
70505;SDS011;58032;49.820;6.274;2023-11-18T04:25:10;18.17;;;4.47;;
70505;SDS011;58032;49.820;6.274;2023-11-18T04:27:38;18.05;;;5.05;;
70505;SDS011;58032;49.820;6.274;2023-11-18T04:30:05;24.25;;;5.15;;
70505;SDS011;58032;49.820;6.274;2023-11-18T04:32:32;17.90;;;4.80;;
70505;SDS011;58032;49.820;6.274;2023-11-18T04:35:00;20.83;;;4.43;;
70505;SDS011;58032;49.820;6.274;2023-11-18T04:37:36;15.15;;;4.60;;
70505;SDS011;58032;49.820;6.274;2023-11-18T04:40:04;17.15;;;4.63;;
70505;SDS011;58032;49.820;6.274;2023-11-18T04:42:32;21.63;;;4.85;;
70505;SDS011;58032;49.820;6.274;2023-11-18T04:44:59;25.00;;;4.88;;
70505;SDS011;58032;49.820;6.274;2023-11-18T04:47:26;22.27;;;4.90;;
70505;SDS011;58032;49.820;6.274;2023-11-18T04:49:53;45.35;;;5.38;;
70505;SDS011;58032;49.820;6.274;2023-11-18T04:52:20;23.35;;;4.75;;
70505;SDS011;58032;49.820;6.274;2023-11-18T04:54:47;26.02;;;4.35;;
70505;SDS011;58032;49.820;6.274;2023-11-18T04:57:17;32.35;;;4.95;;
70505;SDS011;58032;49.820;6.274;2023-11-18T04:59:43;25.83;;;4.40;;
70505;SDS011;58032;49.820;6.274;2023-11-18T05:02:10;57.33;;;5.38;;
70505;SDS011;58032;49.820;6.274;2023-11-18T05:04:37;105.05;;;6.28;;
70505;SDS011;58032;49.820;6.274;2023-11-18T05:07:04;55.72;;;5.78;;
70505;SDS011;58032;49.820;6.274;2023-11-18T05:09:30;22.23;;;4.63;;
70505;SDS011;58032;49.820;6.274;2023-11-18T05:11:58;51.23;;;4.47;;
70505;SDS011;58032;49.820;6.274;2023-11-18T05:14:25;44.28;;;4.05;;
70505;SDS011;58032;49.820;6.274;2023-11-18T05:16:53;30.55;;;3.88;;
70505;SDS011;58032;49.820;6.274;2023-11-18T05:19:20;44.10;;;4.68;;
70505;SDS011;58032;49.820;6.274;2023-11-18T05:21:47;51.35;;;4.38;;
70505;SDS011;58032;49.820;6.274;2023-11-18T05:24:16;45.73;;;4.43;;
70505;SDS011;58032;49.820;6.274;2023-11-18T05:26:42;69.13;;;4.78;;
70505;SDS011;58032;49.820;6.274;2023-11-18T05:29:09;61.08;;;8.02;;
70505;SDS011;58032;49.820;6.274;2023-11-18T05:31:36;68.95;;;4.55;;
70505;SDS011;58032;49.820;6.274;2023-11-18T05:34:03;82.72;;;4.80;;
70505;SDS011;58032;49.820;6.274;2023-11-18T05:36:31;35.07;;;3.87;;
70505;SDS011;58032;49.820;6.274;2023-11-18T05:39:03;40.97;;;3.97;;
70505;SDS011;58032;49.820;6.274;2023-11-18T05:41:31;65.90;;;5.05;;
70505;SDS011;58032;49.820;6.274;2023-11-18T05:43:58;77.90;;;5.35;;
70505;SDS011;58032;49.820;6.274;2023-11-18T05:46:25;81.50;;;5.15;;
70505;SDS011;58032;49.820;6.274;2023-11-18T05:48:56;39.40;;;4.70;;
70505;SDS011;58032;49.820;6.274;2023-11-18T05:51:23;61.05;;;4.78;;
70505;SDS011;58032;49.820;6.274;2023-11-18T05:53:50;64.35;;;6.00;;
70505;SDS011;58032;49.820;6.274;2023-11-18T05:56:19;67.95;;;6.25;;
70505;SDS011;58032;49.820;6.274;2023-11-18T05:58:46;82.30;;;6.40;;
70505;SDS011;58032;49.820;6.274;2023-11-18T06:01:13;67.07;;;5.70;;
70505;SDS011;58032;49.820;6.274;2023-11-18T06:03:43;47.05;;;4.78;;
70505;SDS011;58032;49.820;6.274;2023-11-18T06:06:11;46.63;;;4.88;;
70505;SDS011;58032;49.820;6.274;2023-11-18T06:08:38;48.50;;;3.75;;
70505;SDS011;58032;49.820;6.274;2023-11-18T06:11:08;39.60;;;4.40;;
70505;SDS011;58032;49.820;6.274;2023-11-18T06:13:44;48.97;;;4.37;;
70505;SDS011;58032;49.820;6.274;2023-11-18T06:16:20;45.55;;;4.90;;
70505;SDS011;58032;49.820;6.274;2023-11-18T06:18:47;80.47;;;5.28;;
70505;SDS011;58032;49.820;6.274;2023-11-18T06:21:18;64.40;;;5.25;;
70505;SDS011;58032;49.820;6.274;2023-11-18T06:23:46;53.85;;;4.07;;
70505;SDS011;58032;49.820;6.274;2023-11-18T06:26:14;88.87;;;5.17;;
70505;SDS011;58032;49.820;6.274;2023-11-18T06:28:41;53.10;;;4.28;;
70505;SDS011;58032;49.820;6.274;2023-11-18T06:31:08;35.17;;;3.53;;
70505;SDS011;58032;49.820;6.274;2023-11-18T06:33:39;61.47;;;4.05;;
70505;SDS011;58032;49.820;6.274;2023-11-18T06:36:09;91.80;;;5.40;;
70505;SDS011;58032;49.820;6.274;2023-11-18T06:38:37;50.70;;;4.40;;
70505;SDS011;58032;49.820;6.274;2023-11-18T06:41:04;69.43;;;4.85;;
70505;SDS011;58032;49.820;6.274;2023-11-18T06:43:35;75.78;;;4.68;;
70505;SDS011;58032;49.820;6.274;2023-11-18T06:46:21;38.13;;;3.92;;
70505;SDS011;58032;49.820;6.274;2023-11-18T06:48:49;51.90;;;4.13;;
70505;SDS011;58032;49.820;6.274;2023-11-18T06:51:16;33.83;;;3.60;;
70505;SDS011;58032;49.820;6.274;2023-11-18T06:53:43;32.58;;;3.17;;
70505;SDS011;58032;49.820;6.274;2023-11-18T06:56:12;48.88;;;3.88;;
70505;SDS011;58032;49.820;6.274;2023-11-18T06:58:39;32.85;;;3.85;;
70505;SDS011;58032;49.820;6.274;2023-11-18T07:01:07;69.22;;;4.90;;
70505;SDS011;58032;49.820;6.274;2023-11-18T07:03:34;58.20;;;4.63;;
70505;SDS011;58032;49.820;6.274;2023-11-18T07:06:02;35.80;;;3.38;;
70505;SDS011;58032;49.820;6.274;2023-11-18T07:08:28;43.92;;;3.38;;
70505;SDS011;58032;49.820;6.274;2023-11-18T07:10:55;25.35;;;2.95;;
70505;SDS011;58032;49.820;6.274;2023-11-18T07:13:23;39.50;;;3.58;;
70505;SDS011;58032;49.820;6.274;2023-11-18T07:15:50;46.63;;;6.30;;
70505;SDS011;58032;49.820;6.274;2023-11-18T07:18:17;59.47;;;4.63;;
70505;SDS011;58032;49.820;6.274;2023-11-18T07:20:44;44.65;;;3.63;;
70505;SDS011;58032;49.820;6.274;2023-11-18T07:23:11;38.25;;;3.58;;
70505;SDS011;58032;49.820;6.274;2023-11-18T07:25:38;45.95;;;4.72;;
70505;SDS011;58032;49.820;6.274;2023-11-18T07:28:05;48.20;;;5.37;;
70505;SDS011;58032;49.820;6.274;2023-11-18T07:30:36;57.90;;;3.75;;
70505;SDS011;58032;49.820;6.274;2023-11-18T07:33:03;52.47;;;4.00;;
70505;SDS011;58032;49.820;6.274;2023-11-18T07:35:31;50.50;;;3.88;;
70505;SDS011;58032;49.820;6.274;2023-11-18T07:37:59;26.90;;;3.13;;
70505;SDS011;58032;49.820;6.274;2023-11-18T07:40:26;40.83;;;3.63;;
70505;SDS011;58032;49.820;6.274;2023-11-18T07:42:55;32.60;;;3.30;;
70505;SDS011;58032;49.820;6.274;2023-11-18T07:45:28;32.22;;;2.67;;
70505;SDS011;58032;49.820;6.274;2023-11-18T07:47:55;54.22;;;4.30;;
70505;SDS011;58032;49.820;6.274;2023-11-18T07:50:22;37.10;;;3.30;;
70505;SDS011;58032;49.820;6.274;2023-11-18T07:52:49;34.97;;;3.40;;
70505;SDS011;58032;49.820;6.274;2023-11-18T07:55:16;35.65;;;3.58;;
70505;SDS011;58032;49.820;6.274;2023-11-18T07:57:42;44.20;;;3.75;;
70505;SDS011;58032;49.820;6.274;2023-11-18T08:00:09;50.97;;;3.67;;
70505;SDS011;58032;49.820;6.274;2023-11-18T08:02:39;56.17;;;4.20;;
70505;SDS011;58032;49.820;6.274;2023-11-18T08:05:06;29.33;;;3.33;;
70505;SDS011;58032;49.820;6.274;2023-11-18T08:07:43;28.48;;;4.10;;
70505;SDS011;58032;49.820;6.274;2023-11-18T08:10:12;104.22;;;8.55;;
70505;SDS011;58032;49.820;6.274;2023-11-18T08:12:39;47.17;;;4.03;;
70505;SDS011;58032;49.820;6.274;2023-11-18T08:15:09;49.85;;;4.90;;
70505;SDS011;58032;49.820;6.274;2023-11-18T08:17:36;36.17;;;3.93;;
70505;SDS011;58032;49.820;6.274;2023-11-18T08:20:03;30.75;;;3.90;;
70505;SDS011;58032;49.820;6.274;2023-11-18T08:22:40;53.35;;;5.35;;
70505;SDS011;58032;49.820;6.274;2023-11-18T08:25:08;21.42;;;4.20;;
70505;SDS011;58032;49.820;6.274;2023-11-18T08:27:35;32.15;;;4.25;;
70505;SDS011;58032;49.820;6.274;2023-11-18T08:30:02;24.07;;;3.70;;
70505;SDS011;58032;49.820;6.274;2023-11-18T08:32:37;30.50;;;4.20;;
70505;SDS011;58032;49.820;6.274;2023-11-18T08:35:05;15.98;;;4.20;;
70505;SDS011;58032;49.820;6.274;2023-11-18T08:37:34;16.05;;;3.85;;
70505;SDS011;58032;49.820;6.274;2023-11-18T08:40:04;14.43;;;3.45;;
70505;SDS011;58032;49.820;6.274;2023-11-18T08:42:33;21.73;;;4.60;;
70505;SDS011;58032;49.820;6.274;2023-11-18T08:45:01;30.05;;;4.80;;
70505;SDS011;58032;49.820;6.274;2023-11-18T08:47:29;16.73;;;3.75;;
70505;SDS011;58032;49.820;6.274;2023-11-18T08:49:58;18.80;;;4.80;;
70505;SDS011;58032;49.820;6.274;2023-11-18T08:52:36;17.13;;;4.63;;
70505;SDS011;58032;49.820;6.274;2023-11-18T08:55:03;13.60;;;4.00;;
70505;SDS011;58032;49.820;6.274;2023-11-18T08:57:47;10.52;;;4.10;;
70505;SDS011;58032;49.820;6.274;2023-11-18T09:00:18;16.10;;;5.03;;
70505;SDS011;58032;49.820;6.274;2023-11-18T09:03:04;12.23;;;4.88;;
70505;SDS011;58032;49.820;6.274;2023-11-18T09:05:32;13.82;;;4.97;;
70505;SDS011;58032;49.820;6.274;2023-11-18T09:07:59;11.80;;;4.63;;
70505;SDS011;58032;49.820;6.274;2023-11-18T09:10:28;19.02;;;4.80;;
70505;SDS011;58032;49.820;6.274;2023-11-18T09:12:55;10.52;;;4.45;;
70505;SDS011;58032;49.820;6.274;2023-11-18T09:15:22;14.73;;;5.25;;
70505;SDS011;58032;49.820;6.274;2023-11-18T09:17:49;13.32;;;4.68;;
70505;SDS011;58032;49.820;6.274;2023-11-18T09:20:16;14.57;;;4.53;;
70505;SDS011;58032;49.820;6.274;2023-11-18T09:22:47;13.35;;;4.35;;
70505;SDS011;58032;49.820;6.274;2023-11-18T09:25:14;12.38;;;5.00;;
70505;SDS011;58032;49.820;6.274;2023-11-18T09:27:41;14.23;;;5.03;;
70505;SDS011;58032;49.820;6.274;2023-11-18T09:30:08;15.63;;;5.28;;
70505;SDS011;58032;49.820;6.274;2023-11-18T09:32:40;13.27;;;4.77;;
70505;SDS011;58032;49.820;6.274;2023-11-18T09:35:08;13.23;;;5.03;;
70505;SDS011;58032;49.820;6.274;2023-11-18T09:37:36;14.65;;;5.78;;
70505;SDS011;58032;49.820;6.274;2023-11-18T09:40:07;13.07;;;5.70;;
70505;SDS011;58032;49.820;6.274;2023-11-18T09:42:40;15.27;;;5.13;;
70505;SDS011;58032;49.820;6.274;2023-11-18T09:45:10;11.37;;;4.23;;
70505;SDS011;58032;49.820;6.274;2023-11-18T09:47:46;16.17;;;4.70;;
70505;SDS011;58032;49.820;6.274;2023-11-18T09:50:17;19.38;;;4.97;;
70505;SDS011;58032;49.820;6.274;2023-11-18T09:52:50;11.98;;;4.40;;
70505;SDS011;58032;49.820;6.274;2023-11-18T09:55:34;12.50;;;4.63;;
70505;SDS011;58032;49.820;6.274;2023-11-18T09:58:05;10.73;;;4.57;;
70505;SDS011;58032;49.820;6.274;2023-11-18T10:00:39;13.27;;;4.65;;
70505;SDS011;58032;49.820;6.274;2023-11-18T10:03:08;11.43;;;4.65;;
70505;SDS011;58032;49.820;6.274;2023-11-18T10:05:39;12.52;;;4.88;;
70505;SDS011;58032;49.820;6.274;2023-11-18T10:08:07;15.57;;;4.43;;
70505;SDS011;58032;49.820;6.274;2023-11-18T10:10:34;12.87;;;4.73;;
70505;SDS011;58032;49.820;6.274;2023-11-18T10:13:04;9.23;;;3.40;;
70505;SDS011;58032;49.820;6.274;2023-11-18T10:15:35;9.55;;;4.05;;
70505;SDS011;58032;49.820;6.274;2023-11-18T10:18:02;9.90;;;4.05;;
70505;SDS011;58032;49.820;6.274;2023-11-18T10:23:06;9.87;;;3.70;;
70505;SDS011;58032;49.820;6.274;2023-11-18T10:25:58;13.30;;;4.82;;
70505;SDS011;58032;49.820;6.274;2023-11-18T10:28:24;10.25;;;3.83;;
70505;SDS011;58032;49.820;6.274;2023-11-18T10:30:55;11.35;;;3.47;;
70505;SDS011;58032;49.820;6.274;2023-11-18T10:33:27;8.57;;;3.50;;
70505;SDS011;58032;49.820;6.274;2023-11-18T10:35:57;9.83;;;3.93;;
70505;SDS011;58032;49.820;6.274;2023-11-18T10:38:24;10.18;;;3.83;;
70505;SDS011;58032;49.820;6.274;2023-11-18T10:40:56;9.50;;;3.88;;
70505;SDS011;58032;49.820;6.274;2023-11-18T10:43:23;11.10;;;3.85;;
70505;SDS011;58032;49.820;6.274;2023-11-18T10:46:08;11.77;;;4.65;;
70505;SDS011;58032;49.820;6.274;2023-11-18T10:48:42;16.90;;;4.63;;
70505;SDS011;58032;49.820;6.274;2023-11-18T10:51:09;12.93;;;4.32;;
70505;SDS011;58032;49.820;6.274;2023-11-18T10:53:41;9.52;;;3.65;;
70505;SDS011;58032;49.820;6.274;2023-11-18T10:56:19;13.68;;;4.70;;
70505;SDS011;58032;49.820;6.274;2023-11-18T10:58:50;12.55;;;4.28;;
70505;SDS011;58032;49.820;6.274;2023-11-18T11:01:30;10.77;;;4.17;;
70505;SDS011;58032;49.820;6.274;2023-11-18T11:04:00;11.52;;;4.18;;
70505;SDS011;58032;49.820;6.274;2023-11-18T11:06:31;11.95;;;4.63;;
70505;SDS011;58032;49.820;6.274;2023-11-18T11:08:58;13.63;;;4.28;;
70505;SDS011;58032;49.820;6.274;2023-11-18T11:11:26;12.88;;;4.18;;
70505;SDS011;58032;49.820;6.274;2023-11-18T11:13:59;9.63;;;4.10;;
70505;SDS011;58032;49.820;6.274;2023-11-18T11:16:37;10.50;;;4.00;;
70505;SDS011;58032;49.820;6.274;2023-11-18T11:19:05;12.07;;;4.32;;
70505;SDS011;58032;49.820;6.274;2023-11-18T11:21:37;11.32;;;4.40;;
70505;SDS011;58032;49.820;6.274;2023-11-18T11:24:11;13.07;;;4.57;;
70505;SDS011;58032;49.820;6.274;2023-11-18T11:29:14;9.57;;;3.08;;
70505;SDS011;58032;49.820;6.274;2023-11-18T11:31:48;15.48;;;4.50;;
70505;SDS011;58032;49.820;6.274;2023-11-18T11:34:19;13.73;;;4.65;;
70505;SDS011;58032;49.820;6.274;2023-11-18T11:36:47;11.45;;;4.55;;
70505;SDS011;58032;49.820;6.274;2023-11-18T11:39:18;11.90;;;4.53;;
70505;SDS011;58032;49.820;6.274;2023-11-18T11:41:52;14.35;;;4.47;;
70505;SDS011;58032;49.820;6.274;2023-11-18T11:44:23;11.30;;;4.30;;
70505;SDS011;58032;49.820;6.274;2023-11-18T11:46:57;9.68;;;4.13;;
70505;SDS011;58032;49.820;6.274;2023-11-18T11:49:27;11.43;;;4.53;;
70505;SDS011;58032;49.820;6.274;2023-11-18T11:54:52;11.55;;;4.82;;
70505;SDS011;58032;49.820;6.274;2023-11-18T11:57:23;15.10;;;5.00;;
70505;SDS011;58032;49.820;6.274;2023-11-18T12:02:22;10.63;;;4.13;;
70505;SDS011;58032;49.820;6.274;2023-11-18T12:04:56;10.63;;;4.80;;
70505;SDS011;58032;49.820;6.274;2023-11-18T12:07:25;11.80;;;3.92;;
70505;SDS011;58032;49.820;6.274;2023-11-18T12:09:57;11.07;;;4.32;;
70505;SDS011;58032;49.820;6.274;2023-11-18T12:12:25;10.10;;;4.03;;
70505;SDS011;58032;49.820;6.274;2023-11-18T12:14:58;9.25;;;3.55;;
70505;SDS011;58032;49.820;6.274;2023-11-18T12:18:30;9.47;;;4.13;;
70505;SDS011;58032;49.820;6.274;2023-11-18T12:20:43;7.72;;;3.35;;
70505;SDS011;58032;49.820;6.274;2023-11-18T12:23:23;12.23;;;3.95;;
70505;SDS011;58032;49.820;6.274;2023-11-18T12:25:51;9.45;;;4.03;;
70505;SDS011;58032;49.820;6.274;2023-11-18T12:30:48;8.10;;;3.13;;
70505;SDS011;58032;49.820;6.274;2023-11-18T12:41:43;8.30;;;3.60;;
70505;SDS011;58032;49.820;6.274;2023-11-18T12:47:08;7.10;;;2.58;;
70505;SDS011;58032;49.820;6.274;2023-11-18T12:49:41;8.18;;;3.75;;
70505;SDS011;58032;49.820;6.274;2023-11-18T12:52:08;7.97;;;3.13;;
70505;SDS011;58032;49.820;6.274;2023-11-18T12:54:36;8.50;;;3.50;;
70505;SDS011;58032;49.820;6.274;2023-11-18T12:57:10;7.87;;;3.07;;
70505;SDS011;58032;49.820;6.274;2023-11-18T12:59:40;6.72;;;3.47;;
70505;SDS011;58032;49.820;6.274;2023-11-18T13:02:08;6.82;;;2.80;;
70505;SDS011;58032;49.820;6.274;2023-11-18T13:04:40;8.00;;;3.05;;
70505;SDS011;58032;49.820;6.274;2023-11-18T13:07:07;10.05;;;3.15;;
70505;SDS011;58032;49.820;6.274;2023-11-18T13:09:35;7.93;;;2.60;;
70505;SDS011;58032;49.820;6.274;2023-11-18T13:12:03;7.13;;;2.55;;
70505;SDS011;58032;49.820;6.274;2023-11-18T13:14:36;6.55;;;2.15;;
70505;SDS011;58032;49.820;6.274;2023-11-18T13:17:05;7.47;;;2.20;;
70505;SDS011;58032;49.820;6.274;2023-11-18T13:19:35;7.65;;;2.67;;
70505;SDS011;58032;49.820;6.274;2023-11-18T13:22:02;6.27;;;2.03;;
70505;SDS011;58032;49.820;6.274;2023-11-18T13:24:35;8.45;;;2.00;;
70505;SDS011;58032;49.820;6.274;2023-11-18T13:27:05;5.55;;;2.10;;
70505;SDS011;58032;49.820;6.274;2023-11-18T13:29:33;7.20;;;1.90;;
70505;SDS011;58032;49.820;6.274;2023-11-18T13:32:01;5.22;;;2.13;;
70505;SDS011;58032;49.820;6.274;2023-11-18T13:34:31;5.37;;;2.07;;
70505;SDS011;58032;49.820;6.274;2023-11-18T13:37:05;10.32;;;2.03;;
70505;SDS011;58032;49.820;6.274;2023-11-18T13:39:33;3.83;;;1.42;;
70505;SDS011;58032;49.820;6.274;2023-11-18T13:42:19;8.48;;;2.08;;
70505;SDS011;58032;49.820;6.274;2023-11-18T13:44:46;6.47;;;2.20;;
70505;SDS011;58032;49.820;6.274;2023-11-18T13:47:17;6.33;;;2.00;;
70505;SDS011;58032;49.820;6.274;2023-11-18T13:49:44;5.07;;;2.00;;
70505;SDS011;58032;49.820;6.274;2023-11-18T13:52:12;5.90;;;2.33;;
70505;SDS011;58032;49.820;6.274;2023-11-18T13:54:42;5.90;;;1.98;;
70505;SDS011;58032;49.820;6.274;2023-11-18T13:57:12;5.80;;;2.10;;
70505;SDS011;58032;49.820;6.274;2023-11-18T13:59:38;5.53;;;2.37;;
70505;SDS011;58032;49.820;6.274;2023-11-18T14:02:05;6.43;;;2.50;;
70505;SDS011;58032;49.820;6.274;2023-11-18T14:04:33;6.22;;;1.63;;
70505;SDS011;58032;49.820;6.274;2023-11-18T14:07:00;6.63;;;2.15;;
70505;SDS011;58032;49.820;6.274;2023-11-18T14:09:35;4.97;;;1.52;;
70505;SDS011;58032;49.820;6.274;2023-11-18T14:12:06;4.60;;;1.47;;
70505;SDS011;58032;49.820;6.274;2023-11-18T14:14:34;4.82;;;1.95;;
70505;SDS011;58032;49.820;6.274;2023-11-18T14:17:01;5.38;;;1.90;;
70505;SDS011;58032;49.820;6.274;2023-11-18T14:19:28;4.88;;;1.63;;
70505;SDS011;58032;49.820;6.274;2023-11-18T14:21:55;5.07;;;1.65;;
70505;SDS011;58032;49.820;6.274;2023-11-18T14:24:22;5.43;;;1.70;;
70505;SDS011;58032;49.820;6.274;2023-11-18T14:26:49;5.07;;;1.33;;
70505;SDS011;58032;49.820;6.274;2023-11-18T14:29:19;5.32;;;1.70;;
70505;SDS011;58032;49.820;6.274;2023-11-18T14:31:46;4.07;;;1.50;;
70505;SDS011;58032;49.820;6.274;2023-11-18T14:34:13;2.97;;;1.13;;
70505;SDS011;58032;49.820;6.274;2023-11-18T14:36:40;5.37;;;1.80;;
70505;SDS011;58032;49.820;6.274;2023-11-18T14:39:10;4.35;;;1.80;;
70505;SDS011;58032;49.820;6.274;2023-11-18T14:41:39;5.38;;;1.85;;
70505;SDS011;58032;49.820;6.274;2023-11-18T14:44:07;5.28;;;1.67;;
70505;SDS011;58032;49.820;6.274;2023-11-18T14:46:36;3.60;;;1.67;;
70505;SDS011;58032;49.820;6.274;2023-11-18T14:49:07;3.53;;;1.13;;
70505;SDS011;58032;49.820;6.274;2023-11-18T14:51:34;4.20;;;1.10;;
70505;SDS011;58032;49.820;6.274;2023-11-18T14:54:02;4.38;;;1.50;;
70505;SDS011;58032;49.820;6.274;2023-11-18T14:56:29;4.68;;;1.55;;
70505;SDS011;58032;49.820;6.274;2023-11-18T14:58:56;5.00;;;1.20;;
70505;SDS011;58032;49.820;6.274;2023-11-18T15:01:23;3.20;;;1.00;;
70505;SDS011;58032;49.820;6.274;2023-11-18T15:03:50;4.97;;;1.08;;
70505;SDS011;58032;49.820;6.274;2023-11-18T15:06:26;3.20;;;1.20;;
70505;SDS011;58032;49.820;6.274;2023-11-18T15:08:53;5.15;;;1.50;;
70505;SDS011;58032;49.820;6.274;2023-11-18T15:11:21;6.10;;;2.15;;
70505;SDS011;58032;49.820;6.274;2023-11-18T15:13:48;4.37;;;1.67;;